sensor_id;sensor_type;location;lat;lon;timestamp;P1;durP1;ratioP1;P2;durP2;ratioP2
43487;SDS011;29078;41.932;25.554;2023-04-06T00:00:49;11.43;;;10.23;;
43487;SDS011;29078;41.932;25.554;2023-04-06T00:03:14;11.48;;;10.27;;
43487;SDS011;29078;41.932;25.554;2023-04-06T00:05:40;11.18;;;10.18;;
43487;SDS011;29078;41.932;25.554;2023-04-06T00:08:06;10.40;;;9.40;;
43487;SDS011;29078;41.932;25.554;2023-04-06T00:10:31;10.88;;;9.88;;
43487;SDS011;29078;41.932;25.554;2023-04-06T00:12:57;10.77;;;9.88;;
43487;SDS011;29078;41.932;25.554;2023-04-06T00:15:23;11.38;;;10.27;;
43487;SDS011;29078;41.932;25.554;2023-04-06T00:17:49;11.68;;;10.45;;
43487;SDS011;29078;41.932;25.554;2023-04-06T00:20:15;11.35;;;10.25;;
43487;SDS011;29078;41.932;25.554;2023-04-06T00:22:41;10.25;;;9.25;;
43487;SDS011;29078;41.932;25.554;2023-04-06T00:25:06;11.10;;;10.10;;
43487;SDS011;29078;41.932;25.554;2023-04-06T00:27:32;11.25;;;10.25;;
43487;SDS011;29078;41.932;25.554;2023-04-06T00:29:57;11.75;;;10.65;;
43487;SDS011;29078;41.932;25.554;2023-04-06T00:32:23;11.35;;;10.25;;
43487;SDS011;29078;41.932;25.554;2023-04-06T00:34:48;10.98;;;9.65;;
43487;SDS011;29078;41.932;25.554;2023-04-06T00:37:14;11.45;;;10.35;;
43487;SDS011;29078;41.932;25.554;2023-04-06T00:39:39;11.23;;;10.18;;
43487;SDS011;29078;41.932;25.554;2023-04-06T00:42:10;11.48;;;10.38;;
43487;SDS011;29078;41.932;25.554;2023-04-06T00:44:40;10.85;;;9.85;;
43487;SDS011;29078;41.932;25.554;2023-04-06T00:47:06;11.70;;;10.57;;
43487;SDS011;29078;41.932;25.554;2023-04-06T00:49:32;10.85;;;9.75;;
43487;SDS011;29078;41.932;25.554;2023-04-06T00:51:58;10.80;;;9.77;;
43487;SDS011;29078;41.932;25.554;2023-04-06T00:54:24;11.43;;;10.32;;
43487;SDS011;29078;41.932;25.554;2023-04-06T00:56:49;10.80;;;9.80;;
43487;SDS011;29078;41.932;25.554;2023-04-06T00:59:15;10.43;;;9.43;;
43487;SDS011;29078;41.932;25.554;2023-04-06T01:01:41;8.70;;;7.90;;
43487;SDS011;29078;41.932;25.554;2023-04-06T01:04:06;9.73;;;8.82;;
43487;SDS011;29078;41.932;25.554;2023-04-06T01:06:31;10.00;;;9.05;;
43487;SDS011;29078;41.932;25.554;2023-04-06T01:08:57;10.45;;;9.45;;
43487;SDS011;29078;41.932;25.554;2023-04-06T01:11:22;10.32;;;9.27;;
43487;SDS011;29078;41.932;25.554;2023-04-06T01:13:48;10.48;;;9.48;;
43487;SDS011;29078;41.932;25.554;2023-04-06T01:16:13;9.70;;;8.70;;
43487;SDS011;29078;41.932;25.554;2023-04-06T01:18:39;9.73;;;8.75;;
43487;SDS011;29078;41.932;25.554;2023-04-06T01:21:05;9.02;;;8.07;;
43487;SDS011;29078;41.932;25.554;2023-04-06T01:23:30;9.25;;;8.45;;
43487;SDS011;29078;41.932;25.554;2023-04-06T01:25:56;9.52;;;8.63;;
43487;SDS011;29078;41.932;25.554;2023-04-06T01:28:21;9.52;;;8.63;;
43487;SDS011;29078;41.932;25.554;2023-04-06T01:30:47;9.13;;;8.32;;
43487;SDS011;29078;41.932;25.554;2023-04-06T01:33:12;9.32;;;8.48;;
43487;SDS011;29078;41.932;25.554;2023-04-06T01:35:37;8.63;;;7.82;;
43487;SDS011;29078;41.932;25.554;2023-04-06T01:38:03;8.68;;;7.88;;
43487;SDS011;29078;41.932;25.554;2023-04-06T01:40:28;9.65;;;8.52;;
43487;SDS011;29078;41.932;25.554;2023-04-06T01:42:54;8.80;;;8.00;;
43487;SDS011;29078;41.932;25.554;2023-04-06T01:45:20;8.80;;;8.00;;
43487;SDS011;29078;41.932;25.554;2023-04-06T01:47:46;9.13;;;8.23;;
43487;SDS011;29078;41.932;25.554;2023-04-06T01:50:11;9.27;;;8.10;;
43487;SDS011;29078;41.932;25.554;2023-04-06T01:52:37;11.05;;;9.63;;
43487;SDS011;29078;41.932;25.554;2023-04-06T01:55:02;10.02;;;9.02;;
43487;SDS011;29078;41.932;25.554;2023-04-06T01:57:28;8.65;;;7.85;;
43487;SDS011;29078;41.932;25.554;2023-04-06T01:59:53;8.48;;;7.68;;
43487;SDS011;29078;41.932;25.554;2023-04-06T02:02:19;8.98;;;8.13;;
43487;SDS011;29078;41.932;25.554;2023-04-06T02:04:44;9.00;;;8.07;;
43487;SDS011;29078;41.932;25.554;2023-04-06T02:07:10;9.05;;;8.25;;
43487;SDS011;29078;41.932;25.554;2023-04-06T02:09:35;8.13;;;7.35;;
43487;SDS011;29078;41.932;25.554;2023-04-06T02:12:01;8.80;;;7.95;;
43487;SDS011;29078;41.932;25.554;2023-04-06T02:14:27;8.10;;;7.30;;
43487;SDS011;29078;41.932;25.554;2023-04-06T02:16:52;8.50;;;7.63;;
43487;SDS011;29078;41.932;25.554;2023-04-06T02:19:18;8.40;;;7.60;;
43487;SDS011;29078;41.932;25.554;2023-04-06T02:21:43;8.50;;;7.70;;
43487;SDS011;29078;41.932;25.554;2023-04-06T02:24:09;8.90;;;8.00;;
43487;SDS011;29078;41.932;25.554;2023-04-06T02:26:34;8.13;;;7.43;;
43487;SDS011;29078;41.932;25.554;2023-04-06T02:29:00;8.50;;;7.70;;
43487;SDS011;29078;41.932;25.554;2023-04-06T02:31:27;7.53;;;6.93;;
43487;SDS011;29078;41.932;25.554;2023-04-06T02:33:52;11.73;;;9.93;;
43487;SDS011;29078;41.932;25.554;2023-04-06T02:36:18;8.30;;;7.50;;
43487;SDS011;29078;41.932;25.554;2023-04-06T02:38:43;8.65;;;7.85;;
43487;SDS011;29078;41.932;25.554;2023-04-06T02:41:08;9.00;;;8.15;;
43487;SDS011;29078;41.932;25.554;2023-04-06T02:43:34;7.30;;;6.70;;
43487;SDS011;29078;41.932;25.554;2023-04-06T02:45:59;8.05;;;7.30;;
43487;SDS011;29078;41.932;25.554;2023-04-06T02:48:25;8.35;;;7.50;;
43487;SDS011;29078;41.932;25.554;2023-04-06T02:50:51;8.52;;;7.82;;
43487;SDS011;29078;41.932;25.554;2023-04-06T02:53:16;8.63;;;7.82;;
43487;SDS011;29078;41.932;25.554;2023-04-06T02:55:41;8.77;;;7.68;;
43487;SDS011;29078;41.932;25.554;2023-04-06T02:58:07;8.18;;;7.47;;
43487;SDS011;29078;41.932;25.554;2023-04-06T03:00:32;8.85;;;8.05;;
43487;SDS011;29078;41.932;25.554;2023-04-06T03:02:58;9.40;;;8.40;;
43487;SDS011;29078;41.932;25.554;2023-04-06T03:05:23;9.95;;;7.93;;
43487;SDS011;29078;41.932;25.554;2023-04-06T03:07:48;8.85;;;8.05;;
43487;SDS011;29078;41.932;25.554;2023-04-06T03:10:14;9.00;;;8.10;;
43487;SDS011;29078;41.932;25.554;2023-04-06T03:12:39;16.67;;;12.80;;
43487;SDS011;29078;41.932;25.554;2023-04-06T03:15:06;9.65;;;8.75;;
43487;SDS011;29078;41.932;25.554;2023-04-06T03:17:33;9.15;;;8.25;;
43487;SDS011;29078;41.932;25.554;2023-04-06T03:19:58;9.18;;;8.35;;
43487;SDS011;29078;41.932;25.554;2023-04-06T03:22:23;9.63;;;8.82;;
43487;SDS011;29078;41.932;25.554;2023-04-06T03:24:49;9.57;;;8.68;;
43487;SDS011;29078;41.932;25.554;2023-04-06T03:27:14;8.95;;;8.15;;
43487;SDS011;29078;41.932;25.554;2023-04-06T03:29:40;10.20;;;9.30;;
43487;SDS011;29078;41.932;25.554;2023-04-06T03:32:05;9.95;;;8.80;;
43487;SDS011;29078;41.932;25.554;2023-04-06T03:34:31;9.65;;;8.52;;
43487;SDS011;29078;41.932;25.554;2023-04-06T03:36:56;9.73;;;8.82;;
43487;SDS011;29078;41.932;25.554;2023-04-06T03:39:21;9.13;;;8.32;;
43487;SDS011;29078;41.932;25.554;2023-04-06T03:41:47;9.98;;;9.07;;
43487;SDS011;29078;41.932;25.554;2023-04-06T03:44:12;9.68;;;8.77;;
43487;SDS011;29078;41.932;25.554;2023-04-06T03:46:38;10.48;;;9.48;;
43487;SDS011;29078;41.932;25.554;2023-04-06T03:49:03;9.77;;;8.88;;
43487;SDS011;29078;41.932;25.554;2023-04-06T03:51:28;11.35;;;10.25;;
43487;SDS011;29078;41.932;25.554;2023-04-06T03:53:54;10.20;;;9.25;;
43487;SDS011;29078;41.932;25.554;2023-04-06T03:56:19;10.73;;;9.73;;
43487;SDS011;29078;41.932;25.554;2023-04-06T03:58:45;9.68;;;8.77;;
43487;SDS011;29078;41.932;25.554;2023-04-06T04:01:14;10.30;;;9.07;;
43487;SDS011;29078;41.932;25.554;2023-04-06T04:03:40;9.93;;;8.95;;
43487;SDS011;29078;41.932;25.554;2023-04-06T04:06:05;10.65;;;9.65;;
43487;SDS011;29078;41.932;25.554;2023-04-06T04:08:30;9.45;;;8.48;;
43487;SDS011;29078;41.932;25.554;2023-04-06T04:10:56;10.48;;;9.57;;
43487;SDS011;29078;41.932;25.554;2023-04-06T04:13:21;9.80;;;8.80;;
43487;SDS011;29078;41.932;25.554;2023-04-06T04:15:47;11.65;;;9.38;;
43487;SDS011;29078;41.932;25.554;2023-04-06T04:18:12;10.27;;;9.27;;
43487;SDS011;29078;41.932;25.554;2023-04-06T04:20:38;10.60;;;9.60;;
43487;SDS011;29078;41.932;25.554;2023-04-06T04:23:03;12.57;;;10.73;;
43487;SDS011;29078;41.932;25.554;2023-04-06T04:25:29;11.60;;;10.45;;
43487;SDS011;29078;41.932;25.554;2023-04-06T04:27:55;11.25;;;9.48;;
43487;SDS011;29078;41.932;25.554;2023-04-06T04:30:20;11.05;;;9.88;;
43487;SDS011;29078;41.932;25.554;2023-04-06T04:32:46;9.10;;;8.20;;
43487;SDS011;29078;41.932;25.554;2023-04-06T04:35:11;9.88;;;9.00;;
43487;SDS011;29078;41.932;25.554;2023-04-06T04:37:38;11.18;;;10.07;;
43487;SDS011;29078;41.932;25.554;2023-04-06T04:40:04;11.02;;;9.23;;
43487;SDS011;29078;41.932;25.554;2023-04-06T04:42:30;11.00;;;9.93;;
43487;SDS011;29078;41.932;25.554;2023-04-06T04:44:56;10.52;;;9.27;;
43487;SDS011;29078;41.932;25.554;2023-04-06T04:47:21;10.93;;;9.82;;
43487;SDS011;29078;41.932;25.554;2023-04-06T04:49:46;10.30;;;9.27;;
43487;SDS011;29078;41.932;25.554;2023-04-06T04:52:12;11.48;;;10.30;;
43487;SDS011;29078;41.932;25.554;2023-04-06T04:54:37;10.57;;;9.52;;
43487;SDS011;29078;41.932;25.554;2023-04-06T04:57:03;10.13;;;9.15;;
43487;SDS011;29078;41.932;25.554;2023-04-06T04:59:29;9.85;;;8.88;;
43487;SDS011;29078;41.932;25.554;2023-04-06T05:01:54;10.73;;;9.55;;
43487;SDS011;29078;41.932;25.554;2023-04-06T05:04:20;10.80;;;9.18;;
43487;SDS011;29078;41.932;25.554;2023-04-06T05:06:45;10.70;;;9.55;;
43487;SDS011;29078;41.932;25.554;2023-04-06T05:09:11;11.02;;;9.57;;
43487;SDS011;29078;41.932;25.554;2023-04-06T05:11:36;10.00;;;9.10;;
43487;SDS011;29078;41.932;25.554;2023-04-06T05:14:02;10.80;;;9.55;;
43487;SDS011;29078;41.932;25.554;2023-04-06T05:16:27;11.27;;;9.77;;
43487;SDS011;29078;41.932;25.554;2023-04-06T05:18:53;12.23;;;11.02;;
43487;SDS011;29078;41.932;25.554;2023-04-06T05:21:18;11.95;;;10.73;;
43487;SDS011;29078;41.932;25.554;2023-04-06T05:23:44;12.70;;;10.20;;
43487;SDS011;29078;41.932;25.554;2023-04-06T05:26:09;11.40;;;10.30;;
43487;SDS011;29078;41.932;25.554;2023-04-06T05:28:35;12.05;;;10.85;;
43487;SDS011;29078;41.932;25.554;2023-04-06T05:31:01;12.55;;;11.20;;
43487;SDS011;29078;41.932;25.554;2023-04-06T05:33:26;12.63;;;11.32;;
43487;SDS011;29078;41.932;25.554;2023-04-06T05:35:52;11.93;;;10.73;;
43487;SDS011;29078;41.932;25.554;2023-04-06T05:38:17;11.00;;;9.90;;
43487;SDS011;29078;41.932;25.554;2023-04-06T05:40:43;12.10;;;10.15;;
43487;SDS011;29078;41.932;25.554;2023-04-06T05:43:08;10.85;;;9.85;;
43487;SDS011;29078;41.932;25.554;2023-04-06T05:45:34;11.25;;;10.05;;
43487;SDS011;29078;41.932;25.554;2023-04-06T05:48:00;12.18;;;10.88;;
43487;SDS011;29078;41.932;25.554;2023-04-06T05:50:26;15.60;;;14.00;;
43487;SDS011;29078;41.932;25.554;2023-04-06T05:52:51;13.18;;;11.32;;
43487;SDS011;29078;41.932;25.554;2023-04-06T05:55:17;13.27;;;11.90;;
43487;SDS011;29078;41.932;25.554;2023-04-06T05:57:42;12.43;;;11.23;;
43487;SDS011;29078;41.932;25.554;2023-04-06T06:00:08;14.45;;;12.20;;
43487;SDS011;29078;41.932;25.554;2023-04-06T06:02:34;10.73;;;9.73;;
43487;SDS011;29078;41.932;25.554;2023-04-06T06:05:00;10.93;;;9.77;;
43487;SDS011;29078;41.932;25.554;2023-04-06T06:07:25;11.30;;;10.18;;
43487;SDS011;29078;41.932;25.554;2023-04-06T06:09:51;10.80;;;9.70;;
43487;SDS011;29078;41.932;25.554;2023-04-06T06:12:16;11.40;;;10.40;;
43487;SDS011;29078;41.932;25.554;2023-04-06T06:14:42;11.35;;;10.23;;
43487;SDS011;29078;41.932;25.554;2023-04-06T06:17:07;11.30;;;10.07;;
43487;SDS011;29078;41.932;25.554;2023-04-06T06:19:33;13.80;;;11.93;;
43487;SDS011;29078;41.932;25.554;2023-04-06T06:21:58;13.23;;;11.82;;
43487;SDS011;29078;41.932;25.554;2023-04-06T06:24:26;10.93;;;9.82;;
43487;SDS011;29078;41.932;25.554;2023-04-06T06:26:52;11.57;;;10.48;;
43487;SDS011;29078;41.932;25.554;2023-04-06T06:29:18;10.60;;;9.55;;
43487;SDS011;29078;41.932;25.554;2023-04-06T06:31:43;12.07;;;10.18;;
43487;SDS011;29078;41.932;25.554;2023-04-06T06:34:09;11.73;;;10.55;;
43487;SDS011;29078;41.932;25.554;2023-04-06T06:36:35;11.45;;;10.45;;
43487;SDS011;29078;41.932;25.554;2023-04-06T06:39:00;12.57;;;10.60;;
43487;SDS011;29078;41.932;25.554;2023-04-06T06:41:28;35.95;;;23.05;;
43487;SDS011;29078;41.932;25.554;2023-04-06T06:43:53;13.45;;;10.90;;
43487;SDS011;29078;41.932;25.554;2023-04-06T06:46:19;11.57;;;10.38;;
43487;SDS011;29078;41.932;25.554;2023-04-06T06:48:45;11.27;;;10.05;;
43487;SDS011;29078;41.932;25.554;2023-04-06T06:51:11;12.68;;;10.10;;
43487;SDS011;29078;41.932;25.554;2023-04-06T06:53:36;15.15;;;10.85;;
43487;SDS011;29078;41.932;25.554;2023-04-06T06:56:02;10.80;;;9.70;;
43487;SDS011;29078;41.932;25.554;2023-04-06T06:58:28;10.75;;;9.65;;
43487;SDS011;29078;41.932;25.554;2023-04-06T07:00:57;9.60;;;8.70;;
43487;SDS011;29078;41.932;25.554;2023-04-06T07:03:23;11.00;;;9.73;;
43487;SDS011;29078;41.932;25.554;2023-04-06T07:05:49;9.82;;;8.07;;
43487;SDS011;29078;41.932;25.554;2023-04-06T07:08:18;11.13;;;9.68;;
43487;SDS011;29078;41.932;25.554;2023-04-06T07:10:47;11.75;;;10.07;;
43487;SDS011;29078;41.932;25.554;2023-04-06T07:13:14;9.82;;;8.93;;
43487;SDS011;29078;41.932;25.554;2023-04-06T07:15:45;9.50;;;8.52;;
43487;SDS011;29078;41.932;25.554;2023-04-06T07:18:11;8.60;;;7.80;;
43487;SDS011;29078;41.932;25.554;2023-04-06T07:20:36;7.78;;;7.07;;
43487;SDS011;29078;41.932;25.554;2023-04-06T07:23:02;11.35;;;9.32;;
43487;SDS011;29078;41.932;25.554;2023-04-06T07:25:27;9.65;;;8.20;;
43487;SDS011;29078;41.932;25.554;2023-04-06T07:27:53;8.63;;;7.82;;
43487;SDS011;29078;41.932;25.554;2023-04-06T07:30:18;8.35;;;7.53;;
43487;SDS011;29078;41.932;25.554;2023-04-06T07:32:44;13.88;;;9.32;;
43487;SDS011;29078;41.932;25.554;2023-04-06T07:35:10;7.93;;;7.13;;
43487;SDS011;29078;41.932;25.554;2023-04-06T07:37:35;8.90;;;8.00;;
43487;SDS011;29078;41.932;25.554;2023-04-06T07:40:01;8.27;;;7.45;;
43487;SDS011;29078;41.932;25.554;2023-04-06T07:42:26;9.68;;;8.40;;
43487;SDS011;29078;41.932;25.554;2023-04-06T07:44:52;8.15;;;7.30;;
43487;SDS011;29078;41.932;25.554;2023-04-06T07:47:17;8.73;;;7.75;;
43487;SDS011;29078;41.932;25.554;2023-04-06T07:49:42;8.30;;;7.50;;
43487;SDS011;29078;41.932;25.554;2023-04-06T07:52:08;8.65;;;7.85;;
43487;SDS011;29078;41.932;25.554;2023-04-06T07:54:33;8.43;;;7.15;;
43487;SDS011;29078;41.932;25.554;2023-04-06T07:57:02;8.52;;;7.57;;
43487;SDS011;29078;41.932;25.554;2023-04-06T07:59:27;8.18;;;6.65;;
43487;SDS011;29078;41.932;25.554;2023-04-06T08:01:52;8.43;;;7.63;;
43487;SDS011;29078;41.932;25.554;2023-04-06T08:04:18;8.63;;;7.78;;
43487;SDS011;29078;41.932;25.554;2023-04-06T08:06:43;10.88;;;7.95;;
43487;SDS011;29078;41.932;25.554;2023-04-06T08:09:09;7.78;;;7.07;;
43487;SDS011;29078;41.932;25.554;2023-04-06T08:11:34;7.65;;;6.85;;
43487;SDS011;29078;41.932;25.554;2023-04-06T08:14:00;8.70;;;6.70;;
43487;SDS011;29078;41.932;25.554;2023-04-06T08:16:25;8.98;;;7.55;;
43487;SDS011;29078;41.932;25.554;2023-04-06T08:18:51;8.20;;;7.15;;
43487;SDS011;29078;41.932;25.554;2023-04-06T08:21:16;9.65;;;7.40;;
43487;SDS011;29078;41.932;25.554;2023-04-06T08:23:42;7.68;;;6.40;;
43487;SDS011;29078;41.932;25.554;2023-04-06T08:26:07;7.43;;;6.72;;
43487;SDS011;29078;41.932;25.554;2023-04-06T08:28:32;9.00;;;8.13;;
43487;SDS011;29078;41.932;25.554;2023-04-06T08:31:02;8.63;;;7.82;;
43487;SDS011;29078;41.932;25.554;2023-04-06T08:33:28;10.05;;;8.23;;
43487;SDS011;29078;41.932;25.554;2023-04-06T08:35:54;9.65;;;8.65;;
43487;SDS011;29078;41.932;25.554;2023-04-06T08:38:19;8.57;;;7.50;;
43487;SDS011;29078;41.932;25.554;2023-04-06T08:40:45;8.10;;;7.40;;
43487;SDS011;29078;41.932;25.554;2023-04-06T08:43:13;8.00;;;7.20;;
43487;SDS011;29078;41.932;25.554;2023-04-06T08:45:40;8.40;;;7.60;;
43487;SDS011;29078;41.932;25.554;2023-04-06T08:48:07;7.53;;;6.70;;
43487;SDS011;29078;41.932;25.554;2023-04-06T08:50:33;13.77;;;10.63;;
43487;SDS011;29078;41.932;25.554;2023-04-06T08:53:00;11.90;;;10.35;;
43487;SDS011;29078;41.932;25.554;2023-04-06T08:55:26;7.68;;;6.97;;
43487;SDS011;29078;41.932;25.554;2023-04-06T08:57:52;8.10;;;6.88;;
43487;SDS011;29078;41.932;25.554;2023-04-06T09:00:21;7.63;;;6.93;;
43487;SDS011;29078;41.932;25.554;2023-04-06T09:02:47;7.47;;;6.78;;
43487;SDS011;29078;41.932;25.554;2023-04-06T09:05:14;8.68;;;7.13;;
43487;SDS011;29078;41.932;25.554;2023-04-06T09:07:40;8.20;;;7.40;;
43487;SDS011;29078;41.932;25.554;2023-04-06T09:10:06;6.93;;;6.22;;
43487;SDS011;29078;41.932;25.554;2023-04-06T09:12:32;8.48;;;7.22;;
43487;SDS011;29078;41.932;25.554;2023-04-06T09:14:59;8.20;;;7.40;;
43487;SDS011;29078;41.932;25.554;2023-04-06T09:17:26;7.43;;;6.82;;
43487;SDS011;29078;41.932;25.554;2023-04-06T09:19:53;7.72;;;6.97;;
43487;SDS011;29078;41.932;25.554;2023-04-06T09:22:19;7.20;;;6.55;;
43487;SDS011;29078;41.932;25.554;2023-04-06T09:24:49;8.93;;;7.80;;
43487;SDS011;29078;41.932;25.554;2023-04-06T09:27:16;7.70;;;6.95;;
43487;SDS011;29078;41.932;25.554;2023-04-06T09:29:43;8.18;;;7.43;;
43487;SDS011;29078;41.932;25.554;2023-04-06T09:32:09;6.93;;;6.30;;
43487;SDS011;29078;41.932;25.554;2023-04-06T09:34:37;9.20;;;8.18;;
43487;SDS011;29078;41.932;25.554;2023-04-06T09:37:16;6.97;;;6.35;;
43487;SDS011;29078;41.932;25.554;2023-04-06T09:39:43;7.68;;;6.97;;
43487;SDS011;29078;41.932;25.554;2023-04-06T09:42:08;7.68;;;6.88;;
43487;SDS011;29078;41.932;25.554;2023-04-06T09:44:34;8.05;;;7.25;;
43487;SDS011;29078;41.932;25.554;2023-04-06T09:47:00;7.88;;;7.18;;
43487;SDS011;29078;41.932;25.554;2023-04-06T09:49:30;7.60;;;6.63;;
43487;SDS011;29078;41.932;25.554;2023-04-06T09:51:59;8.05;;;7.25;;
43487;SDS011;29078;41.932;25.554;2023-04-06T09:54:28;9.30;;;7.68;;
43487;SDS011;29078;41.932;25.554;2023-04-06T10:02:24;9.32;;;8.43;;
43487;SDS011;29078;41.932;25.554;2023-04-06T10:04:59;9.80;;;8.82;;
43487;SDS011;29078;41.932;25.554;2023-04-06T10:07:33;7.93;;;7.03;;
43487;SDS011;29078;41.932;25.554;2023-04-06T10:09:58;6.53;;;5.93;;
43487;SDS011;29078;41.932;25.554;2023-04-06T10:12:26;7.05;;;6.45;;
43487;SDS011;29078;41.932;25.554;2023-04-06T10:14:52;7.95;;;7.10;;
43487;SDS011;29078;41.932;25.554;2023-04-06T10:17:18;8.40;;;7.57;;
43487;SDS011;29078;41.932;25.554;2023-04-06T10:19:49;9.93;;;7.35;;
43487;SDS011;29078;41.932;25.554;2023-04-06T10:22:32;10.82;;;9.57;;
43487;SDS011;29078;41.932;25.554;2023-04-06T10:25:01;7.22;;;6.57;;
43487;SDS011;29078;41.932;25.554;2023-04-06T10:27:28;7.38;;;6.60;;
43487;SDS011;29078;41.932;25.554;2023-04-06T10:30:00;8.98;;;7.18;;
43487;SDS011;29078;41.932;25.554;2023-04-06T10:32:31;5.68;;;5.13;;
43487;SDS011;29078;41.932;25.554;2023-04-06T10:37:45;6.82;;;6.22;;
43487;SDS011;29078;41.932;25.554;2023-04-06T10:40:19;6.78;;;6.13;;
43487;SDS011;29078;41.932;25.554;2023-04-06T10:42:50;7.05;;;6.35;;
43487;SDS011;29078;41.932;25.554;2023-04-06T10:45:23;8.85;;;7.28;;
43487;SDS011;29078;41.932;25.554;2023-04-06T10:47:56;7.82;;;6.82;;
43487;SDS011;29078;41.932;25.554;2023-04-06T10:50:21;7.10;;;6.43;;
43487;SDS011;29078;41.932;25.554;2023-04-06T10:52:58;6.90;;;6.20;;
43487;SDS011;29078;41.932;25.554;2023-04-06T10:55:25;7.05;;;6.40;;
43487;SDS011;29078;41.932;25.554;2023-04-06T10:57:51;6.82;;;6.15;;
43487;SDS011;29078;41.932;25.554;2023-04-06T11:00:17;5.85;;;5.25;;
43487;SDS011;29078;41.932;25.554;2023-04-06T11:02:44;5.45;;;4.95;;
43487;SDS011;29078;41.932;25.554;2023-04-06T11:05:11;7.80;;;6.47;;
43487;SDS011;29078;41.932;25.554;2023-04-06T11:07:39;6.32;;;5.72;;
43487;SDS011;29078;41.932;25.554;2023-04-06T11:10:05;6.63;;;6.03;;
43487;SDS011;29078;41.932;25.554;2023-04-06T11:12:31;5.03;;;4.53;;
43487;SDS011;29078;41.932;25.554;2023-04-06T11:14:57;6.55;;;5.72;;
43487;SDS011;29078;41.932;25.554;2023-04-06T11:17:32;7.13;;;6.03;;
43487;SDS011;29078;41.932;25.554;2023-04-06T11:20:00;6.82;;;6.18;;
43487;SDS011;29078;41.932;25.554;2023-04-06T11:22:26;6.78;;;6.10;;
43487;SDS011;29078;41.932;25.554;2023-04-06T11:24:52;5.80;;;5.20;;
43487;SDS011;29078;41.932;25.554;2023-04-06T11:27:18;7.05;;;5.93;;
43487;SDS011;29078;41.932;25.554;2023-04-06T11:29:44;6.38;;;5.78;;
43487;SDS011;29078;41.932;25.554;2023-04-06T11:32:19;5.70;;;5.20;;
43487;SDS011;29078;41.932;25.554;2023-04-06T11:34:46;5.90;;;5.40;;
43487;SDS011;29078;41.932;25.554;2023-04-06T11:37:12;8.55;;;6.70;;
43487;SDS011;29078;41.932;25.554;2023-04-06T11:39:48;7.30;;;5.43;;
43487;SDS011;29078;41.932;25.554;2023-04-06T11:42:28;6.97;;;6.32;;
43487;SDS011;29078;41.932;25.554;2023-04-06T11:44:55;7.30;;;6.68;;
43487;SDS011;29078;41.932;25.554;2023-04-06T11:47:34;7.35;;;6.60;;
43487;SDS011;29078;41.932;25.554;2023-04-06T11:50:11;8.70;;;7.60;;
43487;SDS011;29078;41.932;25.554;2023-04-06T11:52:41;8.38;;;7.43;;
43487;SDS011;29078;41.932;25.554;2023-04-06T11:55:26;8.38;;;7.57;;
43487;SDS011;29078;41.932;25.554;2023-04-06T11:57:51;7.47;;;6.78;;
43487;SDS011;29078;41.932;25.554;2023-04-06T12:00:17;7.70;;;6.90;;
43487;SDS011;29078;41.932;25.554;2023-04-06T12:02:47;7.72;;;6.47;;
43487;SDS011;29078;41.932;25.554;2023-04-06T12:05:13;7.85;;;7.05;;
43487;SDS011;29078;41.932;25.554;2023-04-06T12:07:38;7.35;;;6.63;;
43487;SDS011;29078;41.932;25.554;2023-04-06T12:10:04;7.43;;;6.68;;
43487;SDS011;29078;41.932;25.554;2023-04-06T12:12:30;7.13;;;6.43;;
43487;SDS011;29078;41.932;25.554;2023-04-06T12:14:56;6.82;;;6.22;;
43487;SDS011;29078;41.932;25.554;2023-04-06T12:17:22;7.13;;;6.43;;
43487;SDS011;29078;41.932;25.554;2023-04-06T12:19:48;6.97;;;6.38;;
43487;SDS011;29078;41.932;25.554;2023-04-06T12:22:14;8.02;;;7.18;;
43487;SDS011;29078;41.932;25.554;2023-04-06T12:24:40;7.18;;;6.47;;
43487;SDS011;29078;41.932;25.554;2023-04-06T12:27:06;8.27;;;7.50;;
43487;SDS011;29078;41.932;25.554;2023-04-06T12:29:31;7.85;;;7.05;;
43487;SDS011;29078;41.932;25.554;2023-04-06T12:31:57;8.45;;;7.65;;
43487;SDS011;29078;41.932;25.554;2023-04-06T12:34:22;8.85;;;8.05;;
43487;SDS011;29078;41.932;25.554;2023-04-06T12:36:48;7.90;;;7.10;;
43487;SDS011;29078;41.932;25.554;2023-04-06T12:39:13;7.30;;;6.25;;
43487;SDS011;29078;41.932;25.554;2023-04-06T12:41:38;7.10;;;6.15;;
43487;SDS011;29078;41.932;25.554;2023-04-06T12:44:07;7.72;;;6.40;;
43487;SDS011;29078;41.932;25.554;2023-04-06T12:46:32;7.22;;;6.53;;
43487;SDS011;29078;41.932;25.554;2023-04-06T12:48:58;7.22;;;6.53;;
43487;SDS011;29078;41.932;25.554;2023-04-06T12:51:24;6.38;;;5.88;;
43487;SDS011;29078;41.932;25.554;2023-04-06T12:53:53;7.15;;;6.35;;
43487;SDS011;29078;41.932;25.554;2023-04-06T12:56:18;6.57;;;5.97;;
43487;SDS011;29078;41.932;25.554;2023-04-06T12:58:46;6.60;;;5.97;;
43487;SDS011;29078;41.932;25.554;2023-04-06T13:01:11;5.88;;;5.38;;
43487;SDS011;29078;41.932;25.554;2023-04-06T13:03:38;6.10;;;5.50;;
43487;SDS011;29078;41.932;25.554;2023-04-06T13:06:04;5.60;;;4.93;;
43487;SDS011;29078;41.932;25.554;2023-04-06T13:08:29;6.38;;;5.78;;
43487;SDS011;29078;41.932;25.554;2023-04-06T13:10:55;5.68;;;5.07;;
43487;SDS011;29078;41.932;25.554;2023-04-06T13:13:25;7.30;;;6.60;;
43487;SDS011;29078;41.932;25.554;2023-04-06T13:15:55;5.95;;;5.40;;
43487;SDS011;29078;41.932;25.554;2023-04-06T13:18:24;6.13;;;5.63;;
43487;SDS011;29078;41.932;25.554;2023-04-06T13:20:49;5.60;;;5.10;;
43487;SDS011;29078;41.932;25.554;2023-04-06T13:23:15;6.25;;;5.72;;
43487;SDS011;29078;41.932;25.554;2023-04-06T13:25:41;6.60;;;5.97;;
43487;SDS011;29078;41.932;25.554;2023-04-06T13:28:07;5.53;;;4.97;;
43487;SDS011;29078;41.932;25.554;2023-04-06T13:30:32;6.10;;;5.60;;
43487;SDS011;29078;41.932;25.554;2023-04-06T13:32:58;6.70;;;6.00;;
43487;SDS011;29078;41.932;25.554;2023-04-06T13:35:23;7.60;;;6.85;;
43487;SDS011;29078;41.932;25.554;2023-04-06T13:37:49;5.90;;;5.40;;
43487;SDS011;29078;41.932;25.554;2023-04-06T13:40:17;6.63;;;5.90;;
43487;SDS011;29078;41.932;25.554;2023-04-06T13:42:43;6.68;;;6.07;;
43487;SDS011;29078;41.932;25.554;2023-04-06T13:45:10;7.50;;;6.68;;
43487;SDS011;29078;41.932;25.554;2023-04-06T13:47:36;6.38;;;5.43;;
43487;SDS011;29078;41.932;25.554;2023-04-06T13:50:01;6.65;;;6.05;;
43487;SDS011;29078;41.932;25.554;2023-04-06T13:52:27;10.13;;;7.40;;
43487;SDS011;29078;41.932;25.554;2023-04-06T13:54:53;7.90;;;7.18;;
43487;SDS011;29078;41.932;25.554;2023-04-06T13:57:18;7.20;;;6.50;;
43487;SDS011;29078;41.932;25.554;2023-04-06T13:59:43;6.43;;;5.82;;
43487;SDS011;29078;41.932;25.554;2023-04-06T14:02:09;8.98;;;8.07;;
43487;SDS011;29078;41.932;25.554;2023-04-06T14:04:35;9.77;;;8.40;;
43487;SDS011;29078;41.932;25.554;2023-04-06T14:07:02;11.95;;;10.75;;
43487;SDS011;29078;41.932;25.554;2023-04-06T14:09:28;10.13;;;8.50;;
43487;SDS011;29078;41.932;25.554;2023-04-06T14:11:54;7.00;;;6.25;;
43487;SDS011;29078;41.932;25.554;2023-04-06T14:14:20;6.60;;;5.97;;
43487;SDS011;29078;41.932;25.554;2023-04-06T14:16:46;6.18;;;5.55;;
43487;SDS011;29078;41.932;25.554;2023-04-06T14:19:12;7.32;;;6.63;;
43487;SDS011;29078;41.932;25.554;2023-04-06T14:21:43;6.65;;;5.97;;
43487;SDS011;29078;41.932;25.554;2023-04-06T14:24:11;6.28;;;5.68;;
43487;SDS011;29078;41.932;25.554;2023-04-06T14:26:38;5.70;;;5.20;;
43487;SDS011;29078;41.932;25.554;2023-04-06T14:29:05;7.18;;;6.18;;
43487;SDS011;29078;41.932;25.554;2023-04-06T14:31:31;6.05;;;5.45;;